Bloomington, IL (61705)

9:03 PM CDT on August 27, 2014 (GMT -0500)
Vap0rz Garage | Change Station
CLOSE
Current Station
Personal Weather Station
Location: Bloomington, IL
Elevation: 853 ft
Nearby Weather Stations

Elev 853 ft 40.49 °N, 88.96 °W | Updated 18 minutes ago

Clear
Clear
77.0 °F
Feels Like 79 °F
N
6.0
Wind Variable Wind from ENE
Gusts 6.0 mph

Today
High -- | Low -- °F
--% Chance of Precip.
Yesterday
High -- | Low -- °F
Precip. -- in
6:18 AM 7:35 PM
Waxing Crescent, 6% visible
Pressure 30.08 in
Visibility 10.0 miles
Clouds Clear
Heat Index 79 °F
Dew Point 68 °F
Humidity 73%
Rainfall 0.00 in
Snow Depth Not available.
UV 0 out of 12
Pollen 9.80 out of 12
Air Quality Not available.
Flu Activity Not available.
METAR KBMI 280156Z 09004KT 10SM CLR 21/19 A3011 RMK AO2 T02110188 SLP186

More Conditions Fewer Conditions

Pressure 30.08 in
Visibility 10.0 miles
Clouds Clear
Heat Index 79 °F
Dew Point 68 °F
Humidity 73%
Rainfall 0.00 in
Snow Depth Not available.
UV 0 out of 12
Pollen 9.80 out of 12
Air Quality Not available.
Flu Activity Not available.
METAR KBMI 280156Z 09004KT 10SM CLR 21/19 A3011 RMK AO2 T02110188 SLP186

More Conditions Fewer Conditions

10-Day Weather Forecast

Almanac

Astronomy

Aug. 27, 2014 Rise Set
Actual Time 6:18 AM CDT 7:35 PM CDT
Civil Twilight 5:49 AM CDT 8:03 PM CDT
Nautical Twilight 5:15 AM CDT 8:37 PM CDT
Astronomical Twilight 4:40 AM CDT 9:13 PM CDT
Moon 8:14 AM CDT (8/27) 8:27 PM CDT (8/27)
Length of Visible Light 14h 13m
Length of Day
13h 17m
Tomorrow will be 2m 32s shorter.
Waxing Crescent, 6% of the Moon is Illuminated
Today
Waxing Crescent
Sep 2
First Quarter
Sep 8
Full
Sep 15
Last Quarter
Sep 24
New

Today's Extremes

State Highs State Lows

Community

WunderPhotos

Upload Photos

1,747,869 photos uploaded!

Nearby

Snow Depth

Station Depth Elevation
No new snow has been reported.

Earthquake Activity

City Distance Mag. Time & Date
No recent earthquake activity has been reported nearby.
Minimum magnitude displayed is 2.5.

Coastal Water Temperatures

Place Temperature
No Stations Reporting

Nearby Weather Stations